sensor_id;sensor_type;location;lat;lon;timestamp;P1;durP1;ratioP1;P2;durP2;ratioP2
65377;SDS011;51982;51.042;13.806;2023-04-24T00:01:09;4.60;;;2.60;;
65377;SDS011;51982;51.042;13.806;2023-04-24T00:03:35;4.57;;;2.80;;
65377;SDS011;51982;51.042;13.806;2023-04-24T00:06:00;4.10;;;2.70;;
65377;SDS011;51982;51.042;13.806;2023-04-24T00:08:25;3.90;;;2.88;;
65377;SDS011;51982;51.042;13.806;2023-04-24T00:10:51;4.38;;;2.85;;
65377;SDS011;51982;51.042;13.806;2023-04-24T00:13:17;4.53;;;2.60;;
65377;SDS011;51982;51.042;13.806;2023-04-24T00:15:43;4.80;;;3.10;;
65377;SDS011;51982;51.042;13.806;2023-04-24T00:18:08;5.80;;;2.40;;
65377;SDS011;51982;51.042;13.806;2023-04-24T00:20:33;4.55;;;2.80;;
65377;SDS011;51982;51.042;13.806;2023-04-24T00:23:00;5.78;;;2.80;;
65377;SDS011;51982;51.042;13.806;2023-04-24T00:25:25;6.97;;;2.75;;
65377;SDS011;51982;51.042;13.806;2023-04-24T00:27:50;7.13;;;2.95;;
65377;SDS011;51982;51.042;13.806;2023-04-24T00:30:16;5.18;;;2.95;;
65377;SDS011;51982;51.042;13.806;2023-04-24T00:32:41;6.53;;;2.95;;
65377;SDS011;51982;51.042;13.806;2023-04-24T00:35:06;4.63;;;2.58;;
65377;SDS011;51982;51.042;13.806;2023-04-24T00:37:32;5.57;;;2.60;;
65377;SDS011;51982;51.042;13.806;2023-04-24T00:39:57;4.07;;;2.47;;
65377;SDS011;51982;51.042;13.806;2023-04-24T00:42:22;3.03;;;2.30;;
65377;SDS011;51982;51.042;13.806;2023-04-24T00:44:48;4.55;;;2.75;;
65377;SDS011;51982;51.042;13.806;2023-04-24T00:47:13;5.35;;;2.75;;
65377;SDS011;51982;51.042;13.806;2023-04-24T00:49:39;4.47;;;2.60;;
65377;SDS011;51982;51.042;13.806;2023-04-24T00:52:04;3.20;;;2.53;;
65377;SDS011;51982;51.042;13.806;2023-04-24T00:54:33;4.97;;;2.53;;
65377;SDS011;51982;51.042;13.806;2023-04-24T00:56:59;4.25;;;2.50;;
65377;SDS011;51982;51.042;13.806;2023-04-24T00:59:26;6.22;;;2.75;;
65377;SDS011;51982;51.042;13.806;2023-04-24T01:01:51;8.55;;;2.80;;
65377;SDS011;51982;51.042;13.806;2023-04-24T01:04:17;5.13;;;2.38;;
65377;SDS011;51982;51.042;13.806;2023-04-24T01:06:43;5.40;;;2.58;;
65377;SDS011;51982;51.042;13.806;2023-04-24T01:09:10;7.43;;;2.55;;
65377;SDS011;51982;51.042;13.806;2023-04-24T01:11:36;4.88;;;2.67;;
65377;SDS011;51982;51.042;13.806;2023-04-24T01:14:02;7.63;;;2.97;;
65377;SDS011;51982;51.042;13.806;2023-04-24T01:16:27;4.20;;;2.65;;
65377;SDS011;51982;51.042;13.806;2023-04-24T01:18:53;3.97;;;2.72;;
65377;SDS011;51982;51.042;13.806;2023-04-24T01:21:18;4.43;;;2.63;;
65377;SDS011;51982;51.042;13.806;2023-04-24T01:23:47;6.15;;;2.95;;
65377;SDS011;51982;51.042;13.806;2023-04-24T01:26:13;3.67;;;2.50;;
65377;SDS011;51982;51.042;13.806;2023-04-24T01:28:39;4.00;;;2.60;;
65377;SDS011;51982;51.042;13.806;2023-04-24T01:31:05;5.72;;;2.80;;
65377;SDS011;51982;51.042;13.806;2023-04-24T01:33:30;3.97;;;2.55;;
65377;SDS011;51982;51.042;13.806;2023-04-24T01:35:56;4.63;;;2.70;;
65377;SDS011;51982;51.042;13.806;2023-04-24T01:38:22;4.68;;;2.97;;
65377;SDS011;51982;51.042;13.806;2023-04-24T01:40:47;5.38;;;2.53;;
65377;SDS011;51982;51.042;13.806;2023-04-24T01:43:12;4.17;;;3.00;;
65377;SDS011;51982;51.042;13.806;2023-04-24T01:45:38;5.47;;;2.72;;
65377;SDS011;51982;51.042;13.806;2023-04-24T01:48:03;5.00;;;2.97;;
65377;SDS011;51982;51.042;13.806;2023-04-24T01:50:29;4.53;;;2.72;;
65377;SDS011;51982;51.042;13.806;2023-04-24T01:52:54;6.05;;;2.78;;
65377;SDS011;51982;51.042;13.806;2023-04-24T01:55:20;4.93;;;2.97;;
65377;SDS011;51982;51.042;13.806;2023-04-24T01:57:45;5.65;;;3.17;;
65377;SDS011;51982;51.042;13.806;2023-04-24T02:00:11;5.20;;;2.90;;
65377;SDS011;51982;51.042;13.806;2023-04-24T02:02:37;4.38;;;2.80;;
65377;SDS011;51982;51.042;13.806;2023-04-24T02:05:05;4.53;;;2.47;;
65377;SDS011;51982;51.042;13.806;2023-04-24T02:07:31;5.82;;;3.10;;
65377;SDS011;51982;51.042;13.806;2023-04-24T02:09:57;5.43;;;2.97;;
65377;SDS011;51982;51.042;13.806;2023-04-24T02:12:22;4.75;;;2.92;;
65377;SDS011;51982;51.042;13.806;2023-04-24T02:14:48;4.13;;;2.78;;
65377;SDS011;51982;51.042;13.806;2023-04-24T02:17:13;5.53;;;2.97;;
65377;SDS011;51982;51.042;13.806;2023-04-24T02:19:40;5.15;;;3.00;;
65377;SDS011;51982;51.042;13.806;2023-04-24T02:22:05;4.03;;;2.92;;
65377;SDS011;51982;51.042;13.806;2023-04-24T02:24:31;7.07;;;3.03;;
65377;SDS011;51982;51.042;13.806;2023-04-24T02:26:56;4.07;;;2.85;;
65377;SDS011;51982;51.042;13.806;2023-04-24T02:29:22;6.15;;;2.95;;
65377;SDS011;51982;51.042;13.806;2023-04-24T02:31:48;4.47;;;3.15;;
65377;SDS011;51982;51.042;13.806;2023-04-24T02:34:13;4.87;;;3.00;;
65377;SDS011;51982;51.042;13.806;2023-04-24T02:36:38;4.80;;;2.90;;
65377;SDS011;51982;51.042;13.806;2023-04-24T02:39:03;7.47;;;3.10;;
65377;SDS011;51982;51.042;13.806;2023-04-24T02:41:28;6.73;;;3.27;;
65377;SDS011;51982;51.042;13.806;2023-04-24T02:43:56;4.25;;;3.30;;
65377;SDS011;51982;51.042;13.806;2023-04-24T02:46:22;5.30;;;3.28;;
65377;SDS011;51982;51.042;13.806;2023-04-24T02:48:47;6.00;;;3.13;;
65377;SDS011;51982;51.042;13.806;2023-04-24T02:51:13;5.10;;;3.27;;
65377;SDS011;51982;51.042;13.806;2023-04-24T02:53:38;5.97;;;3.40;;
65377;SDS011;51982;51.042;13.806;2023-04-24T02:56:03;6.57;;;3.25;;
65377;SDS011;51982;51.042;13.806;2023-04-24T02:58:29;6.20;;;3.05;;
65377;SDS011;51982;51.042;13.806;2023-04-24T03:00:54;5.40;;;3.03;;
65377;SDS011;51982;51.042;13.806;2023-04-24T03:03:22;5.32;;;3.42;;
65377;SDS011;51982;51.042;13.806;2023-04-24T03:05:48;6.32;;;3.28;;
65377;SDS011;51982;51.042;13.806;2023-04-24T03:08:13;9.00;;;3.20;;
65377;SDS011;51982;51.042;13.806;2023-04-24T03:10:39;4.20;;;3.15;;
65377;SDS011;51982;51.042;13.806;2023-04-24T03:13:04;6.38;;;3.38;;
65377;SDS011;51982;51.042;13.806;2023-04-24T03:15:30;5.43;;;3.42;;
65377;SDS011;51982;51.042;13.806;2023-04-24T03:17:55;6.23;;;3.20;;
65377;SDS011;51982;51.042;13.806;2023-04-24T03:20:20;6.67;;;3.40;;
65377;SDS011;51982;51.042;13.806;2023-04-24T03:22:46;4.25;;;3.38;;
65377;SDS011;51982;51.042;13.806;2023-04-24T03:25:11;5.03;;;3.00;;
65377;SDS011;51982;51.042;13.806;2023-04-24T03:27:36;6.90;;;3.33;;
65377;SDS011;51982;51.042;13.806;2023-04-24T03:30:02;4.55;;;3.08;;
65377;SDS011;51982;51.042;13.806;2023-04-24T03:32:28;4.18;;;3.05;;
65377;SDS011;51982;51.042;13.806;2023-04-24T03:34:53;5.07;;;3.20;;
65377;SDS011;51982;51.042;13.806;2023-04-24T03:37:18;5.57;;;3.17;;
65377;SDS011;51982;51.042;13.806;2023-04-24T03:39:44;4.78;;;3.50;;
65377;SDS011;51982;51.042;13.806;2023-04-24T03:42:09;8.57;;;3.80;;
65377;SDS011;51982;51.042;13.806;2023-04-24T03:44:35;6.10;;;3.60;;
65377;SDS011;51982;51.042;13.806;2023-04-24T03:47:00;8.18;;;3.47;;
65377;SDS011;51982;51.042;13.806;2023-04-24T03:49:26;8.23;;;3.30;;
65377;SDS011;51982;51.042;13.806;2023-04-24T03:51:51;8.50;;;3.58;;
65377;SDS011;51982;51.042;13.806;2023-04-24T03:54:17;8.30;;;3.88;;
65377;SDS011;51982;51.042;13.806;2023-04-24T03:56:43;5.43;;;3.75;;
65377;SDS011;51982;51.042;13.806;2023-04-24T03:59:08;6.40;;;3.73;;
65377;SDS011;51982;51.042;13.806;2023-04-24T04:01:33;6.43;;;4.38;;
65377;SDS011;51982;51.042;13.806;2023-04-24T04:04:02;7.22;;;3.75;;
65377;SDS011;51982;51.042;13.806;2023-04-24T04:06:28;6.57;;;3.67;;
65377;SDS011;51982;51.042;13.806;2023-04-24T04:08:53;6.70;;;3.35;;
65377;SDS011;51982;51.042;13.806;2023-04-24T04:11:18;10.38;;;3.65;;
65377;SDS011;51982;51.042;13.806;2023-04-24T04:13:44;7.57;;;3.43;;
65377;SDS011;51982;51.042;13.806;2023-04-24T04:16:09;5.20;;;3.90;;
65377;SDS011;51982;51.042;13.806;2023-04-24T04:18:34;6.55;;;3.72;;
65377;SDS011;51982;51.042;13.806;2023-04-24T04:20:59;6.45;;;3.40;;
65377;SDS011;51982;51.042;13.806;2023-04-24T04:23:26;6.70;;;3.45;;
65377;SDS011;51982;51.042;13.806;2023-04-24T04:25:51;7.28;;;3.38;;
65377;SDS011;51982;51.042;13.806;2023-04-24T04:28:16;6.13;;;3.70;;
65377;SDS011;51982;51.042;13.806;2023-04-24T04:30:44;6.22;;;3.30;;
65377;SDS011;51982;51.042;13.806;2023-04-24T04:33:10;7.97;;;3.10;;
65377;SDS011;51982;51.042;13.806;2023-04-24T04:35:35;5.20;;;3.43;;
65377;SDS011;51982;51.042;13.806;2023-04-24T04:38:01;5.45;;;3.28;;
65377;SDS011;51982;51.042;13.806;2023-04-24T04:40:26;4.90;;;3.07;;
65377;SDS011;51982;51.042;13.806;2023-04-24T04:42:53;6.53;;;3.63;;
65377;SDS011;51982;51.042;13.806;2023-04-24T04:45:18;7.30;;;3.50;;
65377;SDS011;51982;51.042;13.806;2023-04-24T04:47:45;10.48;;;3.60;;
65377;SDS011;51982;51.042;13.806;2023-04-24T04:50:10;7.45;;;3.72;;
65377;SDS011;51982;51.042;13.806;2023-04-24T04:52:36;5.60;;;3.58;;
65377;SDS011;51982;51.042;13.806;2023-04-24T04:55:01;5.47;;;3.27;;
65377;SDS011;51982;51.042;13.806;2023-04-24T04:57:27;4.43;;;3.17;;
65377;SDS011;51982;51.042;13.806;2023-04-24T04:59:52;4.28;;;2.80;;
65377;SDS011;51982;51.042;13.806;2023-04-24T05:02:17;4.45;;;2.97;;
65377;SDS011;51982;51.042;13.806;2023-04-24T05:04:43;5.13;;;2.65;;
65377;SDS011;51982;51.042;13.806;2023-04-24T05:07:08;5.47;;;3.23;;
65377;SDS011;51982;51.042;13.806;2023-04-24T05:09:33;4.13;;;2.77;;
65377;SDS011;51982;51.042;13.806;2023-04-24T05:11:58;5.83;;;2.60;;
65377;SDS011;51982;51.042;13.806;2023-04-24T05:14:23;8.43;;;2.47;;
65377;SDS011;51982;51.042;13.806;2023-04-24T05:16:49;5.77;;;2.77;;
65377;SDS011;51982;51.042;13.806;2023-04-24T05:19:14;7.03;;;2.75;;
65377;SDS011;51982;51.042;13.806;2023-04-24T05:21:40;7.35;;;2.92;;
65377;SDS011;51982;51.042;13.806;2023-04-24T05:24:05;4.47;;;2.35;;
65377;SDS011;51982;51.042;13.806;2023-04-24T05:26:31;7.05;;;2.20;;
65377;SDS011;51982;51.042;13.806;2023-04-24T05:28:56;4.45;;;1.88;;
65377;SDS011;51982;51.042;13.806;2023-04-24T05:31:22;7.03;;;1.70;;
65377;SDS011;51982;51.042;13.806;2023-04-24T05:33:47;4.50;;;2.00;;
65377;SDS011;51982;51.042;13.806;2023-04-24T05:36:12;2.43;;;1.50;;
65377;SDS011;51982;51.042;13.806;2023-04-24T05:38:38;4.07;;;1.75;;
65377;SDS011;51982;51.042;13.806;2023-04-24T05:41:03;4.32;;;1.77;;
65377;SDS011;51982;51.042;13.806;2023-04-24T05:43:28;5.13;;;1.60;;
65377;SDS011;51982;51.042;13.806;2023-04-24T05:45:53;5.57;;;1.20;;
65377;SDS011;51982;51.042;13.806;2023-04-24T05:48:19;3.72;;;1.50;;
65377;SDS011;51982;51.042;13.806;2023-04-24T05:50:44;3.55;;;1.38;;
65377;SDS011;51982;51.042;13.806;2023-04-24T05:53:10;4.82;;;1.38;;
65377;SDS011;51982;51.042;13.806;2023-04-24T05:55:35;8.52;;;1.30;;
65377;SDS011;51982;51.042;13.806;2023-04-24T05:58:01;5.80;;;1.42;;
65377;SDS011;51982;51.042;13.806;2023-04-24T06:00:26;2.73;;;1.43;;
65377;SDS011;51982;51.042;13.806;2023-04-24T06:02:51;1.40;;;1.13;;
65377;SDS011;51982;51.042;13.806;2023-04-24T06:05:17;2.05;;;1.10;;
65377;SDS011;51982;51.042;13.806;2023-04-24T06:07:43;2.33;;;1.33;;
65377;SDS011;51982;51.042;13.806;2023-04-24T06:10:08;4.78;;;2.10;;
65377;SDS011;51982;51.042;13.806;2023-04-24T06:12:34;7.55;;;1.98;;
65377;SDS011;51982;51.042;13.806;2023-04-24T06:15:00;10.80;;;1.70;;
65377;SDS011;51982;51.042;13.806;2023-04-24T06:17:25;5.53;;;1.40;;
65377;SDS011;51982;51.042;13.806;2023-04-24T06:19:51;7.75;;;1.88;;
65377;SDS011;51982;51.042;13.806;2023-04-24T06:22:16;2.37;;;1.07;;
65377;SDS011;51982;51.042;13.806;2023-04-24T06:24:41;3.40;;;1.20;;
65377;SDS011;51982;51.042;13.806;2023-04-24T06:27:06;4.43;;;1.33;;
65377;SDS011;51982;51.042;13.806;2023-04-24T06:29:32;4.70;;;1.45;;
65377;SDS011;51982;51.042;13.806;2023-04-24T06:31:58;4.78;;;1.42;;
65377;SDS011;51982;51.042;13.806;2023-04-24T06:34:23;3.58;;;1.30;;
65377;SDS011;51982;51.042;13.806;2023-04-24T06:36:48;4.80;;;1.40;;
65377;SDS011;51982;51.042;13.806;2023-04-24T06:39:14;1.98;;;1.00;;
65377;SDS011;51982;51.042;13.806;2023-04-24T06:41:39;2.72;;;0.90;;
65377;SDS011;51982;51.042;13.806;2023-04-24T06:44:05;0.98;;;0.80;;
65377;SDS011;51982;51.042;13.806;2023-04-24T06:46:30;0.93;;;0.70;;
65377;SDS011;51982;51.042;13.806;2023-04-24T06:48:56;1.90;;;1.02;;
65377;SDS011;51982;51.042;13.806;2023-04-24T06:51:24;6.68;;;1.20;;
65377;SDS011;51982;51.042;13.806;2023-04-24T06:53:51;1.77;;;1.10;;
65377;SDS011;51982;51.042;13.806;2023-04-24T06:56:16;3.80;;;2.20;;
65377;SDS011;51982;51.042;13.806;2023-04-24T06:58:42;2.08;;;1.00;;
65377;SDS011;51982;51.042;13.806;2023-04-24T07:01:07;1.08;;;0.85;;
65377;SDS011;51982;51.042;13.806;2023-04-24T07:03:32;1.10;;;0.80;;
65377;SDS011;51982;51.042;13.806;2023-04-24T07:05:57;1.20;;;0.82;;
65377;SDS011;51982;51.042;13.806;2023-04-24T07:08:23;3.10;;;0.80;;
65377;SDS011;51982;51.042;13.806;2023-04-24T07:10:49;2.58;;;1.50;;
65377;SDS011;51982;51.042;13.806;2023-04-24T07:13:15;1.10;;;0.82;;
65377;SDS011;51982;51.042;13.806;2023-04-24T07:15:41;1.55;;;0.70;;
65377;SDS011;51982;51.042;13.806;2023-04-24T07:18:06;3.38;;;0.80;;
65377;SDS011;51982;51.042;13.806;2023-04-24T07:20:31;1.80;;;0.70;;
65377;SDS011;51982;51.042;13.806;2023-04-24T07:22:58;1.23;;;0.70;;
65377;SDS011;51982;51.042;13.806;2023-04-24T07:25:23;1.20;;;0.90;;
65377;SDS011;51982;51.042;13.806;2023-04-24T07:27:48;3.93;;;0.93;;
65377;SDS011;51982;51.042;13.806;2023-04-24T07:30:14;3.22;;;0.70;;
65377;SDS011;51982;51.042;13.806;2023-04-24T07:32:39;1.05;;;0.60;;
65377;SDS011;51982;51.042;13.806;2023-04-24T07:35:04;5.93;;;0.88;;
65377;SDS011;51982;51.042;13.806;2023-04-24T07:37:30;7.03;;;0.98;;
65377;SDS011;51982;51.042;13.806;2023-04-24T07:39:55;2.22;;;0.65;;
65377;SDS011;51982;51.042;13.806;2023-04-24T07:42:21;1.17;;;0.60;;
65377;SDS011;51982;51.042;13.806;2023-04-24T07:44:46;0.93;;;0.80;;
65377;SDS011;51982;51.042;13.806;2023-04-24T07:47:12;0.95;;;0.60;;
65377;SDS011;51982;51.042;13.806;2023-04-24T07:49:39;1.33;;;0.70;;
65377;SDS011;51982;51.042;13.806;2023-04-24T07:52:06;2.40;;;0.52;;
65377;SDS011;51982;51.042;13.806;2023-04-24T07:54:31;2.30;;;0.60;;
65377;SDS011;51982;51.042;13.806;2023-04-24T07:56:56;1.23;;;0.70;;
65377;SDS011;51982;51.042;13.806;2023-04-24T07:59:22;1.17;;;0.70;;
65377;SDS011;51982;51.042;13.806;2023-04-24T08:01:47;1.93;;;0.80;;
65377;SDS011;51982;51.042;13.806;2023-04-24T08:04:12;2.17;;;0.68;;
65377;SDS011;51982;51.042;13.806;2023-04-24T08:06:37;1.90;;;0.73;;
65377;SDS011;51982;51.042;13.806;2023-04-24T08:09:03;2.33;;;1.50;;
65377;SDS011;51982;51.042;13.806;2023-04-24T08:11:28;1.65;;;0.70;;
65377;SDS011;51982;51.042;13.806;2023-04-24T08:13:53;0.60;;;0.60;;
65377;SDS011;51982;51.042;13.806;2023-04-24T08:16:19;2.22;;;0.77;;
65377;SDS011;51982;51.042;13.806;2023-04-24T08:18:44;1.48;;;0.55;;
65377;SDS011;51982;51.042;13.806;2023-04-24T08:21:10;6.00;;;0.87;;
65377;SDS011;51982;51.042;13.806;2023-04-24T08:23:36;4.68;;;0.93;;
65377;SDS011;51982;51.042;13.806;2023-04-24T08:26:01;0.57;;;0.50;;
65377;SDS011;51982;51.042;13.806;2023-04-24T08:28:26;1.60;;;0.80;;
65377;SDS011;51982;51.042;13.806;2023-04-24T08:30:51;2.10;;;0.60;;
65377;SDS011;51982;51.042;13.806;2023-04-24T08:33:19;1.55;;;0.90;;
65377;SDS011;51982;51.042;13.806;2023-04-24T08:35:45;2.92;;;0.80;;
65377;SDS011;51982;51.042;13.806;2023-04-24T08:38:10;3.17;;;0.70;;
65377;SDS011;51982;51.042;13.806;2023-04-24T08:40:36;1.42;;;0.70;;
65377;SDS011;51982;51.042;13.806;2023-04-24T08:43:01;1.23;;;0.50;;
65377;SDS011;51982;51.042;13.806;2023-04-24T08:45:28;3.05;;;0.60;;
65377;SDS011;51982;51.042;13.806;2023-04-24T08:47:54;1.10;;;0.80;;
65377;SDS011;51982;51.042;13.806;2023-04-24T08:50:20;2.10;;;0.60;;
65377;SDS011;51982;51.042;13.806;2023-04-24T08:52:46;2.05;;;0.68;;
65377;SDS011;51982;51.042;13.806;2023-04-24T08:55:14;0.75;;;0.50;;
65377;SDS011;51982;51.042;13.806;2023-04-24T08:57:41;1.10;;;0.60;;
65377;SDS011;51982;51.042;13.806;2023-04-24T09:00:09;1.30;;;0.50;;
65377;SDS011;51982;51.042;13.806;2023-04-24T09:02:35;1.45;;;0.60;;
65377;SDS011;51982;51.042;13.806;2023-04-24T09:05:01;2.58;;;1.00;;
65377;SDS011;51982;51.042;13.806;2023-04-24T09:07:27;4.00;;;1.25;;
65377;SDS011;51982;51.042;13.806;2023-04-24T09:09:52;2.13;;;0.60;;
65377;SDS011;51982;51.042;13.806;2023-04-24T09:12:18;6.47;;;0.50;;
65377;SDS011;51982;51.042;13.806;2023-04-24T09:14:44;2.03;;;0.50;;
65377;SDS011;51982;51.042;13.806;2023-04-24T09:17:10;0.85;;;0.57;;
65377;SDS011;51982;51.042;13.806;2023-04-24T09:19:36;1.27;;;0.50;;
65377;SDS011;51982;51.042;13.806;2023-04-24T09:22:05;1.30;;;0.50;;
65377;SDS011;51982;51.042;13.806;2023-04-24T09:24:32;0.60;;;0.60;;
65377;SDS011;51982;51.042;13.806;2023-04-24T09:26:58;1.27;;;0.40;;
65377;SDS011;51982;51.042;13.806;2023-04-24T09:29:24;0.40;;;0.40;;
65377;SDS011;51982;51.042;13.806;2023-04-24T09:31:50;2.15;;;0.60;;
65377;SDS011;51982;51.042;13.806;2023-04-24T09:34:19;5.55;;;1.00;;
65377;SDS011;51982;51.042;13.806;2023-04-24T09:39:15;2.03;;;0.60;;
65377;SDS011;51982;51.042;13.806;2023-04-24T09:41:44;1.80;;;1.20;;
65377;SDS011;51982;51.042;13.806;2023-04-24T09:44:24;1.10;;;0.50;;
65377;SDS011;51982;51.042;13.806;2023-04-24T09:46:55;1.25;;;0.65;;
65377;SDS011;51982;51.042;13.806;2023-04-24T09:49:27;0.65;;;0.50;;
65377;SDS011;51982;51.042;13.806;2023-04-24T09:52:03;2.35;;;0.70;;
65377;SDS011;51982;51.042;13.806;2023-04-24T09:54:29;3.92;;;0.50;;
65377;SDS011;51982;51.042;13.806;2023-04-24T09:56:54;1.63;;;0.55;;
65377;SDS011;51982;51.042;13.806;2023-04-24T09:59:20;3.22;;;0.60;;
65377;SDS011;51982;51.042;13.806;2023-04-24T10:01:45;1.98;;;0.82;;
65377;SDS011;51982;51.042;13.806;2023-04-24T10:06:49;0.73;;;0.65;;
65377;SDS011;51982;51.042;13.806;2023-04-24T10:09:17;0.95;;;0.60;;
65377;SDS011;51982;51.042;13.806;2023-04-24T10:11:43;1.33;;;0.80;;
65377;SDS011;51982;51.042;13.806;2023-04-24T10:14:16;1.02;;;0.55;;
65377;SDS011;51982;51.042;13.806;2023-04-24T10:16:43;0.57;;;0.43;;
65377;SDS011;51982;51.042;13.806;2023-04-24T10:19:09;2.33;;;0.77;;
65377;SDS011;51982;51.042;13.806;2023-04-24T10:21:35;1.40;;;0.47;;
65377;SDS011;51982;51.042;13.806;2023-04-24T10:24:07;2.28;;;0.60;;
65377;SDS011;51982;51.042;13.806;2023-04-24T10:26:32;1.33;;;0.63;;
65377;SDS011;51982;51.042;13.806;2023-04-24T10:28:58;1.58;;;0.60;;
65377;SDS011;51982;51.042;13.806;2023-04-24T10:31:23;2.25;;;0.60;;
65377;SDS011;51982;51.042;13.806;2023-04-24T10:33:50;0.98;;;0.63;;
65377;SDS011;51982;51.042;13.806;2023-04-24T10:36:16;0.47;;;0.47;;
65377;SDS011;51982;51.042;13.806;2023-04-24T10:38:42;0.60;;;0.50;;
65377;SDS011;51982;51.042;13.806;2023-04-24T10:41:12;0.90;;;0.60;;
65377;SDS011;51982;51.042;13.806;2023-04-24T10:43:44;1.40;;;0.60;;
65377;SDS011;51982;51.042;13.806;2023-04-24T10:46:09;1.30;;;0.70;;
65377;SDS011;51982;51.042;13.806;2023-04-24T10:48:35;0.50;;;0.50;;
65377;SDS011;51982;51.042;13.806;2023-04-24T10:51:00;0.90;;;0.60;;
65377;SDS011;51982;51.042;13.806;2023-04-24T10:53:29;1.98;;;0.50;;
65377;SDS011;51982;51.042;13.806;2023-04-24T10:56:07;0.80;;;0.60;;
65377;SDS011;51982;51.042;13.806;2023-04-24T10:58:41;1.38;;;0.40;;
65377;SDS011;51982;51.042;13.806;2023-04-24T11:01:24;0.98;;;0.68;;
65377;SDS011;51982;51.042;13.806;2023-04-24T11:03:53;1.20;;;0.70;;
65377;SDS011;51982;51.042;13.806;2023-04-24T11:06:28;2.17;;;0.80;;
65377;SDS011;51982;51.042;13.806;2023-04-24T11:08:59;0.60;;;0.60;;
65377;SDS011;51982;51.042;13.806;2023-04-24T11:11:31;0.85;;;0.70;;
65377;SDS011;51982;51.042;13.806;2023-04-24T11:16:35;2.47;;;0.70;;
65377;SDS011;51982;51.042;13.806;2023-04-24T11:19:20;1.75;;;0.50;;
65377;SDS011;51982;51.042;13.806;2023-04-24T11:21:58;1.00;;;0.73;;
65377;SDS011;51982;51.042;13.806;2023-04-24T11:24:29;1.58;;;0.70;;
65377;SDS011;51982;51.042;13.806;2023-04-24T11:27:00;2.05;;;0.60;;
65377;SDS011;51982;51.042;13.806;2023-04-24T11:29:38;1.15;;;0.50;;
65377;SDS011;51982;51.042;13.806;2023-04-24T11:32:17;1.27;;;0.50;;
65377;SDS011;51982;51.042;13.806;2023-04-24T11:35:05;1.10;;;0.70;;
65377;SDS011;51982;51.042;13.806;2023-04-24T11:37:34;1.45;;;0.80;;
65377;SDS011;51982;51.042;13.806;2023-04-24T11:40:04;3.30;;;1.05;;
65377;SDS011;51982;51.042;13.806;2023-04-24T11:42:35;2.92;;;0.50;;
65377;SDS011;51982;51.042;13.806;2023-04-24T11:45:12;2.03;;;0.75;;
65377;SDS011;51982;51.042;13.806;2023-04-24T11:47:39;0.52;;;0.47;;
65377;SDS011;51982;51.042;13.806;2023-04-24T11:50:06;1.15;;;0.60;;
65377;SDS011;51982;51.042;13.806;2023-04-24T11:52:36;0.77;;;0.63;;
65377;SDS011;51982;51.042;13.806;2023-04-24T11:55:02;1.13;;;0.60;;
65377;SDS011;51982;51.042;13.806;2023-04-24T11:57:28;0.65;;;0.57;;
65377;SDS011;51982;51.042;13.806;2023-04-24T11:59:58;1.08;;;0.50;;
65377;SDS011;51982;51.042;13.806;2023-04-24T12:02:24;0.60;;;0.52;;
65377;SDS011;51982;51.042;13.806;2023-04-24T12:04:52;1.05;;;0.70;;
65377;SDS011;51982;51.042;13.806;2023-04-24T12:07:18;2.70;;;0.75;;
65377;SDS011;51982;51.042;13.806;2023-04-24T12:09:45;3.55;;;0.70;;
65377;SDS011;51982;51.042;13.806;2023-04-24T12:12:12;4.60;;;0.60;;
65377;SDS011;51982;51.042;13.806;2023-04-24T12:14:47;1.95;;;0.77;;
65377;SDS011;51982;51.042;13.806;2023-04-24T12:17:14;0.52;;;0.43;;
65377;SDS011;51982;51.042;13.806;2023-04-24T12:19:45;1.38;;;0.60;;
65377;SDS011;51982;51.042;13.806;2023-04-24T12:22:11;1.17;;;0.65;;
65377;SDS011;51982;51.042;13.806;2023-04-24T12:24:54;1.42;;;0.65;;
65377;SDS011;51982;51.042;13.806;2023-04-24T12:27:21;0.93;;;0.80;;
65377;SDS011;51982;51.042;13.806;2023-04-24T12:29:53;1.95;;;0.63;;
65377;SDS011;51982;51.042;13.806;2023-04-24T12:32:20;0.93;;;0.60;;
65377;SDS011;51982;51.042;13.806;2023-04-24T12:34:45;10.27;;;0.68;;
65377;SDS011;51982;51.042;13.806;2023-04-24T12:37:11;1.33;;;0.60;;
65377;SDS011;51982;51.042;13.806;2023-04-24T12:39:37;4.95;;;0.60;;
65377;SDS011;51982;51.042;13.806;2023-04-24T12:42:02;1.17;;;0.67;;
65377;SDS011;51982;51.042;13.806;2023-04-24T12:44:33;3.90;;;0.70;;
65377;SDS011;51982;51.042;13.806;2023-04-24T12:46:59;5.50;;;0.57;;
65377;SDS011;51982;51.042;13.806;2023-04-24T12:49:25;3.60;;;0.63;;
65377;SDS011;51982;51.042;13.806;2023-04-24T12:51:51;3.53;;;0.80;;
65377;SDS011;51982;51.042;13.806;2023-04-24T12:54:16;2.00;;;0.85;;
65377;SDS011;51982;51.042;13.806;2023-04-24T12:56:41;4.18;;;0.80;;
65377;SDS011;51982;51.042;13.806;2023-04-24T12:59:06;2.95;;;1.17;;
65377;SDS011;51982;51.042;13.806;2023-04-24T13:01:31;1.50;;;0.90;;
65377;SDS011;51982;51.042;13.806;2023-04-24T13:03:57;4.72;;;0.85;;
65377;SDS011;51982;51.042;13.806;2023-04-24T13:06:22;1.83;;;0.73;;
65377;SDS011;51982;51.042;13.806;2023-04-24T13:08:47;2.40;;;0.60;;
65377;SDS011;51982;51.042;13.806;2023-04-24T13:11:13;1.92;;;0.57;;
65377;SDS011;51982;51.042;13.806;2023-04-24T13:13:38;4.72;;;0.52;;
65377;SDS011;51982;51.042;13.806;2023-04-24T13:16:04;2.88;;;0.70;;
65377;SDS011;51982;51.042;13.806;2023-04-24T13:18:29;2.78;;;0.82;;
65377;SDS011;51982;51.042;13.806;2023-04-24T13:20:55;2.90;;;0.80;;
65377;SDS011;51982;51.042;13.806;2023-04-24T13:23:20;1.05;;;0.75;;
65377;SDS011;51982;51.042;13.806;2023-04-24T13:25:46;1.23;;;0.80;;
65377;SDS011;51982;51.042;13.806;2023-04-24T13:28:12;1.67;;;0.70;;
65377;SDS011;51982;51.042;13.806;2023-04-24T13:30:37;0.80;;;0.60;;
65377;SDS011;51982;51.042;13.806;2023-04-24T13:33:02;0.93;;;0.70;;
65377;SDS011;51982;51.042;13.806;2023-04-24T13:35:28;1.50;;;0.70;;
65377;SDS011;51982;51.042;13.806;2023-04-24T13:37:53;1.95;;;0.73;;
65377;SDS011;51982;51.042;13.806;2023-04-24T13:40:18;13.50;;;1.03;;
65377;SDS011;51982;51.042;13.806;2023-04-24T13:42:43;1.58;;;0.80;;
65377;SDS011;51982;51.042;13.806;2023-04-24T13:45:09;5.35;;;0.93;;
65377;SDS011;51982;51.042;13.806;2023-04-24T13:47:35;1.60;;;0.80;;
65377;SDS011;51982;51.042;13.806;2023-04-24T13:50:01;3.15;;;0.80;;
65377;SDS011;51982;51.042;13.806;2023-04-24T13:52:26;0.82;;;0.70;;
65377;SDS011;51982;51.042;13.806;2023-04-24T13:54:51;0.80;;;0.80;;
65377;SDS011;51982;51.042;13.806;2023-04-24T13:57:16;7.70;;;0.90;;
65377;SDS011;51982;51.042;13.806;2023-04-24T13:59:42;0.68;;;0.68;;
65377;SDS011;51982;51.042;13.806;2023-04-24T14:02:07;0.70;;;0.70;;
65377;SDS011;51982;51.042;13.806;2023-04-24T14:04:32;1.60;;;0.80;;
65377;SDS011;51982;51.042;13.806;2023-04-24T14:06:58;0.70;;;0.60;;
65377;SDS011;51982;51.042;13.806;2023-04-24T14:09:23;0.90;;;0.70;;
65377;SDS011;51982;51.042;13.806;2023-04-24T14:11:48;3.53;;;0.90;;
65377;SDS011;51982;51.042;13.806;2023-04-24T14:14:13;5.00;;;1.10;;
65377;SDS011;51982;51.042;13.806;2023-04-24T14:16:39;5.00;;;1.10;;
65377;SDS011;51982;51.042;13.806;2023-04-24T14:19:04;2.97;;;0.90;;
65377;SDS011;51982;51.042;13.806;2023-04-24T14:21:30;2.75;;;0.85;;
65377;SDS011;51982;51.042;13.806;2023-04-24T14:23:56;0.80;;;0.70;;
65377;SDS011;51982;51.042;13.806;2023-04-24T14:26:21;1.27;;;0.80;;
65377;SDS011;51982;51.042;13.806;2023-04-24T14:28:46;1.55;;;1.00;;
65377;SDS011;51982;51.042;13.806;2023-04-24T14:31:11;0.80;;;0.80;;
65377;SDS011;51982;51.042;13.806;2023-04-24T14:33:37;2.37;;;0.90;;
65377;SDS011;51982;51.042;13.806;2023-04-24T14:36:02;2.43;;;0.80;;